createdAt,value
2022-10-28T00:02:10.905Z,101165.03
2022-10-28T00:07:12.790Z,101159.63
2022-10-28T00:12:14.619Z,101159.84
2022-10-28T00:17:16.577Z,101166.75
2022-10-28T00:22:18.343Z,101178.31
2022-10-28T00:27:20.164Z,101177.69
2022-10-28T00:32:22.126Z,101167.78
2022-10-28T00:37:24.312Z,101159.53
2022-10-28T00:42:26.708Z,101168.38
2022-10-28T00:47:44.390Z,101172.97
2022-10-28T00:52:49.155Z,101174.75
2022-10-28T00:57:51.554Z,101171.50
2022-10-28T01:02:53.547Z,101162.53
2022-10-28T01:07:59.744Z,101165.97
2022-10-28T01:13:34.603Z,101170.44
2022-10-28T01:18:45.322Z,101152.72
2022-10-28T01:24:11.578Z,101156.34
2022-10-28T01:29:40.567Z,101143.94
2022-10-28T01:35:07.096Z,101155.13
2022-10-28T01:40:34.115Z,101149.28
2022-10-28T01:45:44.969Z,101129.56
2022-10-28T01:50:49.397Z,101132.03
2022-10-28T01:55:55.634Z,101132.31
2022-10-28T02:01:00.991Z,101128.53
2022-10-28T02:06:12.933Z,101118.22
2022-10-28T02:11:51.543Z,101116.22
2022-10-28T02:17:17.804Z,101117.78
2022-10-28T02:23:01.591Z,101115.09
2022-10-28T02:33:35.954Z,101110.69
2022-10-28T02:38:42.552Z,101112.59
2022-10-28T02:43:46.576Z,101115.09
2022-10-28T02:48:53.706Z,101096.41
2022-10-28T02:54:15.631Z,101104.41
2022-10-28T02:59:17.672Z,101100.13
2022-10-28T03:04:19.437Z,101093.03
2022-10-28T03:09:21.318Z,101092.19
2022-10-28T03:14:23.358Z,101087.63
2022-10-28T03:19:25.298Z,101084.88
2022-10-28T03:24:27.220Z,101085.53
2022-10-28T03:29:29.149Z,101087.44
2022-10-28T03:34:30.983Z,101092.63
2022-10-28T03:39:33.119Z,101086.59
2022-10-28T03:44:35.025Z,101080.22
2022-10-28T03:49:37.130Z,101084.97
2022-10-28T03:54:38.983Z,101080.06
2022-10-28T03:59:40.949Z,101088.47
2022-10-28T04:04:42.926Z,101086.84
2022-10-28T04:09:44.665Z,101098.81
2022-10-28T04:14:46.382Z,101093.63
2022-10-28T04:19:48.192Z,101085.72
2022-10-28T04:24:50.085Z,101092.00
2022-10-28T04:29:52.044Z,101102.78
2022-10-28T04:34:53.898Z,101097.59
2022-10-28T04:39:55.764Z,101103.72
2022-10-28T04:44:58.004Z,101098.31
2022-10-28T04:49:59.978Z,101103.31
2022-10-28T04:55:01.727Z,101109.56
2022-10-28T05:00:05.126Z,101098.81
2022-10-28T05:05:07.331Z,101091.06
2022-10-28T05:10:09.525Z,101087.56
2022-10-28T05:15:12.353Z,101100.78
2022-10-28T05:20:16.852Z,101096.41
2022-10-28T05:25:19.344Z,101101.47
2022-10-28T05:30:21.122Z,101095.63
2022-10-28T05:35:22.944Z,101089.53
2022-10-28T05:40:25.490Z,101084.78
2022-10-28T05:45:27.675Z,101091.06
2022-10-28T05:50:29.558Z,101083.84
2022-10-28T05:55:32.361Z,101086.50
2022-10-28T06:00:34.126Z,101087.63
2022-10-28T06:05:37.556Z,101084.00
2022-10-28T06:10:40.359Z,101085.03
2022-10-28T06:15:40.693Z,101084.00
2022-10-28T06:20:42.559Z,101084.25
2022-10-28T06:25:44.418Z,101083.06
2022-10-28T06:30:46.352Z,101088.47
2022-10-28T06:35:48.256Z,101093.22
2022-10-28T06:40:52.398Z,101086.22
2022-10-28T06:45:56.150Z,101101.72
2022-10-28T06:50:59.554Z,101098.84
2022-10-28T06:56:01.487Z,101098.84
2022-10-28T07:01:04.774Z,101100.75
2022-10-28T07:06:06.766Z,101110.31
2022-10-28T07:11:08.930Z,101114.66
2022-10-28T07:16:10.700Z,101120.91
2022-10-28T07:21:14.149Z,101126.38
2022-10-28T07:26:16.011Z,101117.13
2022-10-28T07:31:18.151Z,101117.59
2022-10-28T07:36:20.321Z,101122.47
2022-10-28T07:41:22.467Z,101122.22
2022-10-28T07:46:24.202Z,101123.25
2022-10-28T07:51:26.190Z,101126.19
2022-10-28T07:56:27.901Z,101116.88
2022-10-28T08:01:29.838Z,101116.34
2022-10-28T08:06:32.058Z,101134.78
2022-10-28T08:11:33.761Z,101123.78
2022-10-28T08:16:35.676Z,101127.03
2022-10-28T08:21:37.618Z,101134.03
2022-10-28T08:26:39.418Z,101124.63
2022-10-28T08:31:41.307Z,101124.16
2022-10-28T08:36:43.126Z,101120.69
2022-10-28T08:41:52.164Z,101118.81
2022-10-28T08:47:29.199Z,101113.25
2022-10-28T08:52:34.287Z,101115.75
2022-10-28T08:57:54.560Z,101114.44
2022-10-28T09:03:01.893Z,101123.81
2022-10-28T09:08:04.749Z,101123.56
2022-10-28T09:13:10.503Z,101138.91
2022-10-28T09:18:20.309Z,101137.00
2022-10-28T09:23:27.543Z,101142.00
2022-10-28T09:34:46.687Z,101138.44
2022-10-28T09:39:53.282Z,101137.50
2022-10-28T09:45:12.025Z,101147.97
2022-10-28T09:50:21.946Z,101141.81
2022-10-28T09:55:24.040Z,101146.47
2022-10-28T10:00:26.071Z,101139.25
2022-10-28T10:05:29.075Z,101122.88
2022-10-28T10:10:46.211Z,101126.38
2022-10-28T10:16:02.184Z,101135.13
2022-10-28T10:21:04.377Z,101132.16
2022-10-28T10:26:11.113Z,101130.63
2022-10-28T10:31:26.558Z,101132.75
2022-10-28T10:36:29.255Z,101151.22
2022-10-28T10:41:42.265Z,101142.16
2022-10-28T10:46:44.200Z,101141.94
2022-10-28T10:52:01.786Z,101141.66
2022-10-28T10:57:09.097Z,101146.50
2022-10-28T11:02:35.287Z,101141.50
2022-10-28T11:07:40.775Z,101135.63
2022-10-28T11:12:51.926Z,101140.63
2022-10-28T11:17:59.671Z,101138.06
2022-10-28T11:23:04.115Z,101124.84
2022-10-28T11:28:38.657Z,101125.28
2022-10-28T11:34:09.723Z,101095.19
2022-10-28T11:39:23.710Z,101092.44
2022-10-28T11:44:31.710Z,101089.78
2022-10-28T11:49:36.509Z,101097.88
2022-10-28T11:55:03.469Z,101103.81
2022-10-28T12:00:40.645Z,101105.81
2022-10-28T12:06:20.748Z,101111.69
2022-10-28T12:11:44.030Z,101106.50
2022-10-28T12:16:57.145Z,101106.56
2022-10-28T12:22:07.310Z,101112.97
2022-10-28T12:27:36.310Z,101106.00
2022-10-28T12:32:39.513Z,101113.75
2022-10-28T12:37:51.852Z,101132.53
2022-10-28T12:43:02.275Z,101126.91
2022-10-28T12:48:15.799Z,101132.50
2022-10-28T12:53:35.984Z,101130.25
2022-10-28T12:59:15.301Z,101139.41
2022-10-28T13:04:17.355Z,101137.22
2022-10-28T13:09:39.636Z,101130.00
2022-10-28T13:14:41.490Z,101144.94
2022-10-28T13:20:05.031Z,101151.44
2022-10-28T13:25:25.697Z,101139.81
2022-10-28T13:30:31.044Z,101160.88
2022-10-28T13:35:33.580Z,101163.25
2022-10-28T13:40:35.309Z,101159.31
2022-10-28T13:45:53.408Z,101166.03
2022-10-28T13:51:10.568Z,101172.16
2022-10-28T13:56:31.788Z,101179.50
2022-10-28T14:02:01.914Z,101180.63
2022-10-28T14:07:21.824Z,101188.63
2022-10-28T14:12:32.293Z,101189.91
2022-10-28T14:17:40.347Z,101210.78
2022-10-28T14:22:42.165Z,101218.00
2022-10-28T14:27:44.231Z,101219.38
2022-10-28T14:32:48.899Z,101233.44
2022-10-28T14:38:27.996Z,101241.28
2022-10-28T14:44:02.482Z,101236.13
2022-10-28T14:49:14.038Z,101221.47
2022-10-28T14:54:20.995Z,101223.53
2022-10-28T14:59:30.268Z,101226.81
2022-10-28T15:04:32.147Z,101236.44
2022-10-28T15:09:35.279Z,101237.16
2022-10-28T15:14:40.190Z,101233.50
2022-10-28T15:19:42.927Z,101236.97
2022-10-28T15:25:01.544Z,101246.97
2022-10-28T15:30:13.577Z,101263.09
2022-10-28T15:35:27.586Z,101255.84
2022-10-28T15:40:32.229Z,101267.84
2022-10-28T15:45:42.126Z,101262.41
2022-10-28T15:50:44.289Z,101266.28
2022-10-28T16:01:27.985Z,101278.78
2022-10-28T16:06:36.132Z,101266.28
2022-10-28T16:11:42.871Z,101275.69
2022-10-28T16:16:44.722Z,101265.53
2022-10-28T16:21:46.354Z,101278.09
2022-10-28T16:26:48.050Z,101300.25
2022-10-28T16:31:52.793Z,101285.31
2022-10-28T16:36:54.799Z,101299.13
2022-10-28T16:41:58.026Z,101301.19
2022-10-28T16:46:59.921Z,101307.50
2022-10-28T16:52:03.349Z,101313.44
2022-10-28T16:57:05.237Z,101315.16
2022-10-28T17:02:16.103Z,101300.41
2022-10-28T17:07:18.707Z,101313.69
2022-10-28T17:12:23.521Z,101315.06
2022-10-28T17:17:25.449Z,101321.44
2022-10-28T17:22:27.992Z,101333.44
2022-10-28T17:27:30.145Z,101329.00
2022-10-28T17:32:32.131Z,101348.75
2022-10-28T17:37:34.101Z,101343.00
2022-10-28T17:42:36.036Z,101361.69
2022-10-28T17:47:37.879Z,101360.81
2022-10-28T17:52:39.824Z,101363.47
2022-10-28T17:57:41.644Z,101372.47
2022-10-28T18:02:43.602Z,101378.66
2022-10-28T18:07:45.585Z,101377.03
2022-10-28T18:12:51.080Z,101374.50
2022-10-28T18:17:52.989Z,101377.09
2022-10-28T18:22:54.943Z,101375.63
2022-10-28T18:27:56.940Z,101379.00
2022-10-28T18:32:58.765Z,101384.00
2022-10-28T18:38:01.414Z,101401.53
2022-10-28T18:43:03.231Z,101399.38
2022-10-28T18:48:06.456Z,101404.00
2022-10-28T18:53:08.570Z,101404.13
2022-10-28T18:58:14.522Z,101407.91
2022-10-28T19:03:21.929Z,101411.19
2022-10-28T19:08:23.818Z,101420.56
2022-10-28T19:13:25.885Z,101431.66
2022-10-28T19:18:28.070Z,101436.47
2022-10-28T19:23:33.424Z,101436.28
2022-10-28T19:28:46.712Z,101431.75
2022-10-28T19:33:48.876Z,101436.78
2022-10-28T19:38:53.832Z,101433.59
2022-10-28T19:43:58.703Z,101434.63
2022-10-28T19:49:04.294Z,101439.19
2022-10-28T19:54:09.803Z,101445.97
2022-10-28T19:59:11.873Z,101445.44
2022-10-28T20:04:13.652Z,101459.34
2022-10-28T20:09:15.346Z,101475.69
2022-10-28T20:14:17.279Z,101478.38
2022-10-28T20:19:19.060Z,101473.13
2022-10-28T20:24:20.927Z,101474.53
2022-10-28T20:29:22.571Z,101474.50
2022-10-28T20:34:24.426Z,101486.84
2022-10-28T20:39:26.428Z,101484.72
2022-10-28T20:44:28.139Z,101487.28
2022-10-28T20:49:30.446Z,101491.50
2022-10-28T20:54:32.348Z,101483.31
2022-10-28T20:59:34.269Z,101487.94
2022-10-28T21:04:36.903Z,101496.84
2022-10-28T21:09:38.617Z,101511.22
2022-10-28T21:14:40.407Z,101500.91
2022-10-28T21:19:42.170Z,101503.97
2022-10-28T21:24:43.857Z,101491.78
2022-10-28T21:29:45.686Z,101489.63
2022-10-28T21:34:47.452Z,101496.66
2022-10-28T21:39:51.562Z,101504.91
2022-10-28T21:44:53.371Z,101505.31
2022-10-28T21:49:55.405Z,101521.69
2022-10-28T21:54:57.154Z,101519.78
2022-10-28T21:59:59.364Z,101515.38
2022-10-28T22:05:01.173Z,101517.34
2022-10-28T22:10:03.021Z,101518.22
2022-10-28T22:15:05.357Z,101504.09
2022-10-28T22:20:07.885Z,101505.00
2022-10-28T22:25:10.617Z,101507.75
2022-10-28T22:30:14.208Z,101505.00
2022-10-28T22:35:16.301Z,101527.16
2022-10-28T22:40:18.098Z,101522.78
2022-10-28T22:45:20.090Z,101526.63
2022-10-28T22:50:21.871Z,101518.44
2022-10-28T22:55:23.776Z,101526.31
2022-10-28T23:00:25.618Z,101534.34
2022-10-28T23:05:27.441Z,101532.75
2022-10-28T23:10:29.582Z,101539.13
2022-10-28T23:15:31.658Z,101553.09
2022-10-28T23:20:35.722Z,101546.72
2022-10-28T23:25:37.594Z,101528.91
2022-10-28T23:30:39.395Z,101538.03
2022-10-28T23:35:42.994Z,101540.38
2022-10-28T23:40:44.769Z,101544.16
2022-10-28T23:45:46.820Z,101546.97
2022-10-28T23:50:48.765Z,101540.72
2022-10-28T23:55:51.674Z,101538.03
